Time;durP1;ratioP1;P1;durP2;ratioP2;P2;SDS_P1;SDS_P2;PMS_P1;PMS_P2;Temp;Humidity;BMP_temperature;BMP_pressure;BME280_temperature;BME280_humidity;BME280_pressure;Samples;Min_cycle;Max_cycle;Signal;HPM_P1;HPM_P2
2021/12/12 00:01:14;;;;;;;6.55;5.43;;;;;;;-3.08;100.00;93675.38;2110070;28;20118;-85
2021/12/12 00:02:28;;;;;;;9.25;5.18;;;;;;;-2.96;100.00;93672.84;2117772;27;20015;-86
2021/12/12 00:03:37;;;;;;;6.03;5.40;;;;;;;-3.07;100.00;93666.47;2123319;27;20027;-86
2021/12/12 00:04:46;;;;;;;7.22;5.70;;;;;;;-3.11;100.00;93670.78;2107494;28;20134;-85
2021/12/12 00:05:56;;;;;;;6.70;5.88;;;;;;;-3.03;100.00;93669.94;2102611;27;20025;-85
2021/12/12 00:07:01;;;;;;;7.47;5.68;;;;;;;-3.01;100.00;93672.25;2113272;28;20016;-85
2021/12/12 00:08:05;;;;;;;6.13;5.47;;;;;;;-3.06;100.00;93675.81;2103319;28;20019;-85
2021/12/12 00:09:24;;;;;;;6.85;5.72;;;;;;;-3.04;100.00;93679.66;2106502;28;20397;-85
2021/12/12 00:10:29;;;;;;;7.85;6.18;;;;;;;-3.10;100.00;93675.69;2094858;28;20588;-85
2021/12/12 00:11:32;;;;;;;6.65;5.88;;;;;;;-3.07;100.00;93671.69;2107306;27;20506;-85
2021/12/12 00:12:42;;;;;;;7.00;6.30;;;;;;;-3.09;100.00;93671.22;2110303;28;20049;-85
2021/12/12 00:14:05;;;;;;;7.55;5.68;;;;;;;-2.95;100.00;93686.69;2115221;28;20474;-86
2021/12/12 00:15:08;;;;;;;5.53;4.93;;;;;;;-2.83;100.00;93678.91;2115469;27;20023;-85
2021/12/12 00:16:10;;;;;;;6.13;5.53;;;;;;;-2.85;100.00;93684.47;2123337;27;20056;-86
2021/12/12 00:17:12;;;;;;;6.80;5.75;;;;;;;-2.94;100.00;93675.13;2117826;27;20077;-85
2021/12/12 00:18:13;;;;;;;6.22;5.63;;;;;;;-2.93;100.00;93684.53;2097824;28;20044;-85
2021/12/12 00:19:15;;;;;;;6.63;6.00;;;;;;;-2.89;100.00;93678.34;2095378;28;20473;-85
2021/12/12 00:20:23;;;;;;;6.13;5.53;;;;;;;-2.71;100.00;93689.47;2098154;28;20047;-85
2021/12/12 00:21:30;;;;;;;8.40;6.07;;;;;;;-2.86;100.00;93682.94;2105997;28;20057;-86
2021/12/12 00:22:34;;;;;;;7.97;6.20;;;;;;;-2.99;100.00;93685.78;2102432;28;20032;-86
2021/12/12 00:23:40;;;;;;;7.18;6.38;;;;;;;-3.02;100.00;93692.41;2097753;28;20149;-85
2021/12/12 00:24:41;;;;;;;7.85;5.75;;;;;;;-3.08;100.00;93688.44;2094305;28;20538;-86
2021/12/12 00:25:47;;;;;;;6.43;5.43;;;;;;;-2.94;100.00;93694.22;2106045;28;20058;-86
2021/12/12 00:26:50;;;;;;;6.75;5.85;;;;;;;-2.95;100.00;93694.53;2115857;27;20030;-86
2021/12/12 00:27:54;;;;;;;8.07;6.63;;;;;;;-2.99;100.00;93693.63;2114850;28;20036;-85
2021/12/12 00:28:57;;;;;;;6.50;5.60;;;;;;;-2.91;100.00;93698.81;2102274;28;20078;-85
2021/12/12 00:30:02;;;;;;;7.50;6.60;;;;;;;-2.98;100.00;93693.31;2104940;28;20020;-85
2021/12/12 00:31:12;;;;;;;6.82;6.00;;;;;;;-2.95;100.00;93702.38;2091550;28;20032;-85
2021/12/12 00:32:17;;;;;;;6.70;6.03;;;;;;;-2.91;100.00;93701.41;2092504;28;20031;-85
2021/12/12 00:33:23;;;;;;;6.43;5.65;;;;;;;-2.96;100.00;93706.84;2091112;28;20128;-85
2021/12/12 00:34:27;;;;;;;8.95;6.05;;;;;;;-2.91;100.00;93705.88;2098247;28;20091;-84
2021/12/12 00:35:29;;;;;;;7.25;6.15;;;;;;;-2.85;100.00;93704.66;2099182;28;20029;-85
2021/12/12 00:36:34;;;;;;;6.32;5.72;;;;;;;-2.86;100.00;93708.31;2107094;27;20059;-85
2021/12/12 00:37:36;;;;;;;6.75;5.65;;;;;;;-2.95;100.00;93708.38;2098769;28;20069;-85
2021/12/12 00:38:38;;;;;;;6.15;5.55;;;;;;;-2.97;100.00;93713.16;2106619;28;20032;-84
2021/12/12 00:39:44;;;;;;;8.13;6.32;;;;;;;-3.07;100.00;93713.53;2104195;28;20027;-84
2021/12/12 00:40:49;;;;;;;6.93;5.88;;;;;;;-3.15;100.00;93720.31;2100111;28;20032;-86
2021/12/12 00:42:05;;;;;;;9.20;6.22;;;;;;;-2.97;100.00;93717.63;2100122;28;20020;-85
2021/12/12 00:43:34;;;;;;;6.97;5.90;;;;;;;-2.87;100.00;93722.47;2093823;28;20032;-84
2021/12/12 00:44:39;;;;;;;7.38;6.07;;;;;;;-2.98;100.00;93710.88;2107993;28;20600;-85
2021/12/12 00:45:43;;;;;;;7.18;6.00;;;;;;;-2.89;100.00;93714.19;2099975;27;20032;-85
2021/12/12 00:46:45;;;;;;;6.93;5.95;;;;;;;-2.94;100.00;93711.75;2114123;28;20099;-85
2021/12/12 00:47:46;;;;;;;6.75;5.63;;;;;;;-2.96;100.00;93713.91;2099799;28;20461;-83
2021/12/12 00:48:49;;;;;;;6.78;5.53;;;;;;;-2.75;100.00;93719.97;2094074;28;20123;-84
2021/12/12 00:49:50;;;;;;;7.68;6.13;;;;;;;-2.91;100.00;93719.72;2089679;28;20416;-84
2021/12/12 00:50:52;;;;;;;7.30;6.22;;;;;;;-3.11;100.00;93720.47;2100285;28;20024;-85
2021/12/12 00:51:53;;;;;;;7.20;6.28;;;;;;;-3.14;100.00;93719.22;2106356;28;20028;-84
2021/12/12 00:52:56;;;;;;;6.28;5.63;;;;;;;-3.20;100.00;93719.72;2089812;28;20530;-85
2021/12/12 00:53:58;;;;;;;6.25;5.65;;;;;;;-3.25;100.00;93715.41;2098705;28;20050;-85
2021/12/12 00:55:00;;;;;;;8.27;6.25;;;;;;;-3.26;100.00;93719.13;2106544;28;20062;-85
2021/12/12 00:56:04;;;;;;;7.88;6.22;;;;;;;-3.20;100.00;93717.88;2098211;28;20052;-84
2021/12/12 00:57:10;;;;;;;8.27;6.97;;;;;;;-3.37;100.00;93721.31;2094455;28;20044;-87
2021/12/12 00:58:20;;;;;;;9.07;7.07;;;;;;;-3.34;100.00;93715.44;2107986;27;20028;-84
2021/12/12 00:59:25;;;;;;;9.50;7.10;;;;;;;-3.23;100.00;93721.13;2106416;28;20531;-85
2021/12/12 01:00:36;;;;;;;7.82;6.80;;;;;;;-2.99;100.00;93717.91;2106020;27;20023;-85
2021/12/12 01:01:47;;;;;;;12.05;7.68;;;;;;;-3.20;100.00;93724.97;2116418;27;20032;-84
2021/12/12 01:03:00;;;;;;;10.77;7.35;;;;;;;-3.29;100.00;93732.84;2107706;28;20036;-86
2021/12/12 01:04:09;;;;;;;8.45;6.93;;;;;;;-3.35;100.00;93729.59;2106075;28;20021;-84
2021/12/12 01:05:12;;;;;;;10.05;7.25;;;;;;;-3.20;100.00;93725.72;2118412;27;20383;-84
2021/12/12 01:06:14;;;;;;;10.30;7.50;;;;;;;-3.11;100.00;93729.06;2119874;27;20784;-85
2021/12/12 01:07:21;;;;;;;10.88;7.43;;;;;;;-3.18;100.00;93728.78;2106330;28;20028;-84
2021/12/12 01:08:24;;;;;;;10.40;7.40;;;;;;;-3.21;100.00;93723.41;2101585;28;20056;-85
2021/12/12 01:09:29;;;;;;;9.38;6.45;;;;;;;-3.05;100.00;93729.66;2105962;28;20048;-85
2021/12/12 01:10:38;;;;;;;9.13;7.28;;;;;;;-3.15;100.00;93730.78;2106584;27;20024;-85
2021/12/12 01:11:44;;;;;;;9.52;7.38;;;;;;;-3.29;100.00;93732.84;2099684;28;20070;-84
2021/12/12 01:12:45;;;;;;;9.95;7.85;;;;;;;-3.39;100.00;93733.91;2094531;28;20029;-84
2021/12/12 01:13:48;;;;;;;10.13;7.65;;;;;;;-3.27;100.00;93733.28;2108062;27;20385;-85
2021/12/12 01:15:00;;;;;;;10.88;7.85;;;;;;;-3.31;100.00;93738.34;2114457;28;20015;-84
2021/12/12 01:16:13;;;;;;;8.65;7.10;;;;;;;-3.39;100.00;93736.53;2096216;28;20017;-86
2021/12/12 01:17:40;;;;;;;10.70;7.47;;;;;;;-3.26;100.00;93741.88;2106146;28;20023;-85
2021/12/12 01:18:51;;;;;;;7.97;6.38;;;;;;;-3.35;100.00;93736.69;2105089;28;20464;-85
2021/12/12 01:19:57;;;;;;;8.75;6.55;;;;;;;-3.39;100.00;93735.75;2106873;28;20016;-86
2021/12/12 01:21:04;;;;;;;8.57;7.32;;;;;;;-3.35;100.00;93736.69;2108709;28;20051;-85
2021/12/12 01:22:15;;;;;;;9.75;7.38;;;;;;;-3.30;100.00;93736.50;2098496;28;20056;-84
2021/12/12 01:23:31;;;;;;;10.50;7.00;;;;;;;-3.39;100.00;93738.38;2106246;28;20050;-85
2021/12/12 01:24:36;;;;;;;9.23;7.47;;;;;;;-3.51;100.00;93743.47;2099953;28;20028;-84
2021/12/12 01:25:44;;;;;;;10.25;7.82;;;;;;;-3.34;100.00;93740.81;2106802;28;20028;-85
2021/12/12 01:26:47;;;;;;;9.52;6.80;;;;;;;-3.32;100.00;93749.91;2098833;28;20074;-85
2021/12/12 01:27:49;;;;;;;10.35;7.20;;;;;;;-3.42;100.00;93752.09;2090179;28;20033;-84
2021/12/12 01:28:54;;;;;;;8.32;6.47;;;;;;;-3.29;100.00;93758.97;2100284;27;20020;-85
2021/12/12 01:29:55;;;;;;;9.32;7.32;;;;;;;-3.42;100.00;93758.09;2106536;28;20584;-84
2021/12/12 01:30:59;;;;;;;8.65;7.10;;;;;;;-3.56;100.00;93760.09;2108983;28;20032;-85
2021/12/12 01:32:03;;;;;;;10.77;7.15;;;;;;;-3.59;100.00;93771.19;2107021;28;20127;-85
2021/12/12 01:33:05;;;;;;;9.75;7.13;;;;;;;-3.55;100.00;93765.03;2114656;28;20023;-85
2021/12/12 01:34:12;;;;;;;10.52;6.80;;;;;;;-3.35;100.00;93762.81;2110686;28;20031;-86
2021/12/12 01:35:16;;;;;;;9.48;7.18;;;;;;;-3.41;100.00;93764.06;2106878;28;20050;-84
2021/12/12 01:36:27;;;;;;;9.68;6.97;;;;;;;-3.43;100.00;93761.75;2101516;28;20031;-85
2021/12/12 01:38:54;;;;;;;8.93;6.97;;;;;;;-3.43;100.00;93753.16;2114820;27;20110;-85
2021/12/12 01:40:06;;;;;;;9.52;6.90;;;;;;;-3.54;100.00;93755.34;2103447;28;20495;-85
2021/12/12 01:41:09;;;;;;;9.60;6.75;;;;;;;-3.42;100.00;93755.47;2099423;28;20029;-85
2021/12/12 01:42:32;;;;;;;11.20;7.70;;;;;;;-3.38;100.00;93760.81;2090038;28;20104;-84
2021/12/12 01:43:43;;;;;;;10.45;7.13;;;;;;;-3.37;100.00;93759.75;2095606;28;20115;-85
2021/12/12 01:44:50;;;;;;;12.98;7.50;;;;;;;-3.47;100.00;93758.22;2099299;28;20121;-84
2021/12/12 01:46:01;;;;;;;11.70;7.45;;;;;;;-3.54;100.00;93755.34;2099411;28;20137;-87
2021/12/12 01:47:24;;;;;;;10.57;7.30;;;;;;;-3.52;100.00;93760.25;2099118;28;20023;-85
2021/12/12 01:48:49;;;;;;;9.38;7.78;;;;;;;-3.58;100.00;93762.25;2097149;28;20023;-85
2021/12/12 01:49:54;;;;;;;10.05;6.88;;;;;;;-3.65;100.00;93760.09;2115820;27;20019;-86
2021/12/12 01:51:07;;;;;;;9.77;7.50;;;;;;;-3.59;100.00;93760.72;2119284;27;20035;-84
2021/12/12 01:52:11;;;;;;;10.25;7.22;;;;;;;-3.72;100.00;93757.22;2105452;27;20047;-85
2021/12/12 01:53:16;;;;;;;12.18;7.93;;;;;;;-3.78;100.00;93760.28;2109790;28;20027;-84
2021/12/12 01:54:27;;;;;;;12.90;8.52;;;;;;;-3.60;100.00;93757.34;2112472;27;20402;-85
2021/12/12 01:55:32;;;;;;;10.30;7.07;;;;;;;-3.71;100.00;93763.19;2107319;28;20028;-85
2021/12/12 01:56:42;;;;;;;11.25;8.15;;;;;;;-3.78;100.00;93755.06;2098810;28;20024;-86
2021/12/12 01:57:44;;;;;;;9.38;7.18;;;;;;;-3.79;100.00;93751.69;2094568;28;20029;-85
2021/12/12 01:58:49;;;;;;;8.82;7.38;;;;;;;-3.78;100.00;93755.81;2097592;28;20494;-85
2021/12/12 01:59:50;;;;;;;13.95;8.52;;;;;;;-3.92;100.00;93763.81;2099013;28;20066;-84
2021/12/12 02:01:23;;;;;;;12.30;8.43;;;;;;;-3.89;100.00;93770.28;2097321;28;20028;-85
2021/12/12 02:02:31;;;;;;;11.25;7.88;;;;;;;-4.11;100.00;93766.75;2103370;28;20069;-83
2021/12/12 02:03:35;;;;;;;9.73;7.43;;;;;;;-4.06;100.00;93768.44;2106799;28;20020;-84
2021/12/12 02:05:07;;;;;;;12.45;8.38;;;;;;;-4.13;100.00;93766.28;2114457;28;20024;-84
2021/12/12 02:06:11;;;;;;;11.23;7.70;;;;;;;-4.27;100.00;93772.72;2101818;28;20043;-85
2021/12/12 02:07:16;;;;;;;11.77;8.50;;;;;;;-4.29;100.00;93769.69;2094685;28;20062;-84
2021/12/12 02:09:24;;;;;;;;;;;;;;;-4.43;100.00;93770.59;2148846;27;20109;-86
2021/12/12 02:10:30;;;;;;;11.48;7.35;;;;;;;-4.39;100.00;93770.72;2127616;27;20477;-85
2021/12/12 02:11:34;;;;;;;11.80;7.85;;;;;;;-4.35;100.00;93769.78;2121356;27;20027;-84
2021/12/12 02:12:35;;;;;;;11.07;7.85;;;;;;;-4.38;100.00;93775.66;2113481;28;20023;-84
2021/12/12 02:13:40;;;;;;;9.95;8.05;;;;;;;-4.17;100.00;93775.03;2113189;27;20073;-85
2021/12/12 02:14:42;;;;;;;10.60;7.80;;;;;;;-4.12;100.00;93770.44;2114778;27;20110;-85
2021/12/12 02:15:46;;;;;;;12.05;8.15;;;;;;;-4.24;100.00;93767.69;2113430;28;20361;-85
2021/12/12 02:16:52;;;;;;;9.25;7.10;;;;;;;-4.30;100.00;93768.91;2110956;27;20024;-85
2021/12/12 02:17:53;;;;;;;10.35;7.38;;;;;;;-4.50;100.00;93775.47;2107209;28;20496;-85
2021/12/12 02:18:58;;;;;;;7.70;6.47;;;;;;;-4.18;100.00;93770.91;2118997;28;20030;-85
2021/12/12 02:21:22;;;;;;;11.82;7.40;;;;;;;-4.49;100.00;93766.56;2127118;27;20023;-85
2021/12/12 02:35:48;;;;;;;9.73;7.38;;;;;;;-4.62;100.00;93783.88;2124614;27;20019;-85
2021/12/12 02:36:53;;;;;;;9.93;7.07;;;;;;;-4.81;100.00;93786.75;2124222;27;20026;-86
2021/12/12 02:37:56;;;;;;;8.82;6.80;;;;;;;-4.76;100.00;93780.63;2130586;27;20501;-86
2021/12/12 02:39:08;;;;;;;10.32;6.97;;;;;;;-4.67;100.00;93776.19;2117530;27;20452;-84
2021/12/12 02:40:24;;;;;;;9.30;6.70;;;;;;;-4.72;100.00;93778.94;2116029;27;20549;-84
2021/12/12 02:41:30;;;;;;;12.75;7.22;;;;;;;-4.74;100.00;93775.09;2132541;27;20408;-84
2021/12/12 02:42:34;;;;;;;8.35;5.68;;;;;;;-4.69;100.00;93782.81;2121232;28;20022;-85
2021/12/12 02:43:42;;;;;;;9.50;6.43;;;;;;;-4.77;100.00;93779.09;2121799;27;20015;-84
2021/12/12 02:44:49;;;;;;;10.88;6.80;;;;;;;-4.73;100.00;93798.28;2116113;27;20031;-85
2021/12/12 02:46:00;;;;;;;8.73;6.47;;;;;;;-4.65;100.00;93794.16;2128955;27;20452;-85
2021/12/12 02:47:10;;;;;;;9.07;6.60;;;;;;;-4.59;100.00;93783.28;2117781;27;20023;-84
2021/12/12 02:48:17;;;;;;;9.43;6.13;;;;;;;-4.74;100.00;93786.31;2121350;28;20453;-85
2021/12/12 02:49:39;;;;;;;10.57;7.50;;;;;;;-4.73;100.00;93789.69;2112013;27;20027;-84
2021/12/12 02:50:43;;;;;;;11.27;6.28;;;;;;;-4.70;100.00;93794.28;2110597;28;20439;-84
2021/12/12 02:51:44;;;;;;;9.00;6.03;;;;;;;-4.74;100.00;93795.97;2105469;28;20024;-84
2021/12/12 02:53:13;;;;;;;8.52;5.97;;;;;;;-4.91;100.00;93800.06;2122101;27;20023;-86
2021/12/12 02:54:14;;;;;;;9.70;6.18;;;;;;;-4.91;100.00;93788.88;2119883;27;20233;-84
2021/12/12 02:55:24;;;;;;;9.13;6.53;;;;;;;-4.86;100.00;93793.94;2112012;27;20457;-84
2021/12/12 02:56:49;;;;;;;9.80;6.22;;;;;;;-4.93;100.00;93788.38;2121645;27;20033;-84
2021/12/12 02:58:00;;;;;;;8.27;6.25;;;;;;;-4.90;100.00;93785.19;2123471;27;20408;-83
2021/12/12 02:59:07;;;;;;;12.10;6.80;;;;;;;-4.88;100.00;93789.00;2116439;28;20392;-85
2021/12/12 03:00:12;;;;;;;10.30;5.72;;;;;;;-4.88;100.00;93786.41;2107727;28;20465;-84
2021/12/12 03:01:29;;;;;;;9.40;6.07;;;;;;;-4.81;100.00;93778.94;2107352;28;20043;-86
2021/12/12 03:02:40;;;;;;;7.75;5.60;;;;;;;-4.92;100.00;93775.03;2116026;27;20457;-84
2021/12/12 03:03:45;;;;;;;9.70;6.00;;;;;;;-5.05;100.00;93775.91;2104350;28;20447;-84
2021/12/12 03:04:46;;;;;;;9.18;6.38;;;;;;;-5.00;100.00;93778.41;2109018;28;20902;-85
2021/12/12 03:05:49;;;;;;;7.95;5.78;;;;;;;-4.95;100.00;93775.66;2112847;27;20381;-85
2021/12/12 03:06:57;;;;;;;7.82;5.63;;;;;;;-5.03;100.00;93786.06;2112929;28;20023;-86
2021/12/12 03:08:07;;;;;;;7.32;5.07;;;;;;;-4.92;100.00;93782.88;2110364;27;20115;-85
2021/12/12 03:09:36;;;;;;;6.72;5.13;;;;;;;-4.96;100.00;93788.97;2109105;28;20474;-84
2021/12/12 03:10:45;;;;;;;7.17;5.37;;;;;;;-4.96;100.00;93787.19;2116935;27;20032;-85
2021/12/12 03:11:56;;;;;;;6.55;5.25;;;;;;;-5.08;100.00;93787.72;2112396;28;20437;-86
2021/12/12 03:13:03;;;;;;;6.38;4.68;;;;;;;-5.00;100.00;93786.22;2107060;28;20465;-85
2021/12/12 03:14:09;;;;;;;6.22;4.65;;;;;;;-4.97;100.00;93792.66;2108942;28;20019;-84
2021/12/12 03:15:19;;;;;;;7.22;5.10;;;;;;;-4.92;100.00;93789.91;2104823;28;20043;-85
2021/12/12 03:16:27;;;;;;;6.13;4.57;;;;;;;-4.92;100.00;93789.91;2098456;28;20971;-86
2021/12/12 03:17:37;;;;;;;6.65;4.68;;;;;;;-5.10;100.00;93789.84;2106056;28;20533;-85
2021/12/12 03:18:49;;;;;;;7.45;4.57;;;;;;;-5.01;100.00;93799.56;2113930;27;20188;-85
2021/12/12 03:20:01;;;;;;;4.43;4.03;;;;;;;-5.01;100.00;93796.94;2112491;28;20024;-86
2021/12/12 03:21:18;;;;;;;5.93;4.40;;;;;;;-4.97;100.00;93795.28;2096472;28;20537;-84
2021/12/12 03:22:24;;;;;;;7.72;4.65;;;;;;;-5.12;100.00;93796.44;2111436;27;21017;-85
2021/12/12 03:23:37;;;;;;;5.38;4.47;;;;;;;-5.02;100.00;93798.03;2116219;27;20889;-86
2021/12/12 03:24:45;;;;;;;6.78;5.30;;;;;;;-5.18;100.00;93795.81;2100473;28;20028;-85
2021/12/12 03:25:59;;;;;;;5.03;3.92;;;;;;;-5.23;100.00;93795.16;2114261;28;20444;-85
2021/12/12 03:27:10;;;;;;;6.07;4.35;;;;;;;-5.21;100.00;93798.25;2096985;28;20876;-84
2021/12/12 03:28:20;;;;;;;5.20;4.30;;;;;;;-5.23;100.00;93798.53;2107809;28;20438;-85
2021/12/12 03:29:25;;;;;;;6.75;4.45;;;;;;;-5.26;100.00;93808.81;2105858;28;20491;-85
2021/12/12 03:30:28;;;;;;;6.50;4.63;;;;;;;-5.26;100.00;93806.97;2106362;28;20450;-84
2021/12/12 03:31:36;;;;;;;6.03;4.70;;;;;;;-5.16;100.00;93801.50;2090982;28;20443;-84
2021/12/12 03:32:42;;;;;;;5.95;4.60;;;;;;;-5.28;100.00;93796.06;2100423;28;20458;-84
2021/12/12 03:33:46;;;;;;;5.47;4.47;;;;;;;-5.45;100.00;93795.97;2107837;28;20985;-85
2021/12/12 03:34:52;;;;;;;4.85;3.70;;;;;;;-5.40;100.00;93780.22;2098873;28;20032;-84
2021/12/12 03:35:55;;;;;;;5.72;4.80;;;;;;;-5.39;100.00;93779.16;2099487;28;20447;-85
2021/12/12 03:36:56;;;;;;;4.85;4.07;;;;;;;-5.34;100.00;93784.25;2098930;28;20810;-84
2021/12/12 03:37:59;;;;;;;4.53;4.13;;;;;;;-5.27;100.00;93779.34;2106829;28;20457;-85
2021/12/12 03:39:08;;;;;;;6.28;4.60;;;;;;;-5.30;100.00;93779.22;2098721;28;20493;-84
2021/12/12 03:40:29;;;;;;;6.10;4.60;;;;;;;-5.36;100.00;93787.13;2106568;27;20536;-85
2021/12/12 03:41:40;;;;;;;6.30;4.30;;;;;;;-5.23;100.00;93803.75;2103110;28;20450;-84
2021/12/12 03:42:44;;;;;;;6.80;4.18;;;;;;;-5.37;100.00;93800.47;2108148;28;20446;-85
2021/12/12 03:43:53;;;;;;;4.85;3.65;;;;;;;-5.33;100.00;93794.34;2098998;28;20454;-84
2021/12/12 03:44:57;;;;;;;5.72;4.32;;;;;;;-5.35;100.00;93782.72;2100737;28;20449;-85
2021/12/12 03:45:58;;;;;;;4.18;3.78;;;;;;;-5.46;100.00;93791.84;2110070;27;20426;-85
2021/12/12 03:47:19;;;;;;;4.00;3.60;;;;;;;-5.45;100.00;93795.97;2106684;28;20456;-85
2021/12/12 03:48:29;;;;;;;4.85;3.90;;;;;;;-5.69;100.00;93796.31;2112134;27;20441;-84
2021/12/12 03:49:32;;;;;;;3.80;3.45;;;;;;;-5.68;100.00;93792.63;2102530;28;20851;-85
2021/12/12 03:50:36;;;;;;;4.10;3.15;;;;;;;-5.66;100.00;93788.66;2099110;28;20482;-84
2021/12/12 03:51:39;;;;;;;5.60;4.47;;;;;;;-5.70;100.00;93795.53;2098970;28;20439;-84
2021/12/12 03:52:41;;;;;;;5.85;4.68;;;;;;;-5.77;100.00;93797.00;2097913;28;20804;-84
2021/12/12 03:53:42;;;;;;;5.82;3.70;;;;;;;-5.63;100.00;93798.47;2098930;28;20458;-85
2021/12/12 03:54:44;;;;;;;5.55;3.60;;;;;;;-5.63;100.00;93800.31;2106668;28;20921;-86
2021/12/12 03:55:48;;;;;;;4.65;3.83;;;;;;;-5.70;100.00;93792.94;2095112;28;20469;-85
2021/12/12 03:56:51;;;;;;;4.22;3.67;;;;;;;-5.73;100.00;93793.50;2090804;28;20451;-85
2021/12/12 03:57:59;;;;;;;4.53;3.85;;;;;;;-5.63;100.00;93795.09;2108305;27;20450;-84
2021/12/12 03:59:15;;;;;;;4.53;3.47;;;;;;;-5.62;100.00;93787.00;2113374;28;20909;-85
2021/12/12 04:00:28;;;;;;;5.22;3.35;;;;;;;-5.60;100.00;93791.91;2106753;28;20491;-84
2021/12/12 04:01:33;;;;;;;3.50;3.08;;;;;;;-5.71;100.00;93783.56;2093613;28;20470;-85
2021/12/12 04:02:34;;;;;;;3.63;3.20;;;;;;;-5.73;100.00;93793.50;2091179;28;20439;-85
2021/12/12 04:03:38;;;;;;;4.57;3.58;;;;;;;-5.73;100.00;93788.31;2090166;28;20447;-84
2021/12/12 04:04:43;;;;;;;6.25;3.70;;;;;;;-5.75;100.00;93787.84;2091060;28;20537;-85
2021/12/12 04:05:47;;;;;;;4.20;3.28;;;;;;;-5.69;100.00;93789.25;2099566;28;20481;-86
2021/12/12 04:06:49;;;;;;;4.20;3.60;;;;;;;-5.73;100.00;93792.75;2099575;28;20477;-86
2021/12/12 04:07:53;;;;;;;5.45;3.60;;;;;;;-5.85;100.00;93788.06;2098752;28;20482;-84
2021/12/12 04:08:58;;;;;;;3.92;3.53;;;;;;;-5.82;100.00;93797.91;2099048;28;20467;-85
2021/12/12 04:10:06;;;;;;;5.35;3.90;;;;;;;-5.80;100.00;93789.78;2099518;28;20467;-85
2021/12/12 04:11:17;;;;;;;4.07;3.15;;;;;;;-5.82;100.00;93790.09;2108758;27;20450;-85
2021/12/12 04:12:18;;;;;;;4.47;3.42;;;;;;;-5.78;100.00;93785.06;2099655;28;20449;-85
2021/12/12 04:13:21;;;;;;;4.65;3.42;;;;;;;-5.80;100.00;93785.34;2106787;28;20449;-85
2021/12/12 04:14:27;;;;;;;4.45;3.50;;;;;;;-5.75;100.00;93792.25;2115826;27;20408;-86
2021/12/12 04:15:31;;;;;;;5.65;4.03;;;;;;;-5.96;100.00;93792.78;2106518;28;20468;-84
2021/12/12 04:16:38;;;;;;;5.10;3.45;;;;;;;-5.78;100.00;93793.63;2090909;28;20447;-85
2021/12/12 04:17:43;;;;;;;4.28;3.42;;;;;;;-5.96;100.00;93789.41;2099064;28;20496;-84
2021/12/12 04:18:50;;;;;;;3.95;3.40;;;;;;;-5.82;100.00;93792.69;2099509;28;20983;-85
2021/12/12 04:20:12;;;;;;;4.45;3.47;;;;;;;-6.05;100.00;93794.56;2099229;28;20886;-85
2021/12/12 04:21:20;;;;;;;4.00;3.40;;;;;;;-6.25;100.00;93792.38;2104021;28;20570;-84
2021/12/12 04:22:21;;;;;;;4.07;3.67;;;;;;;-6.16;100.00;93790.63;2107589;28;20485;-84
2021/12/12 04:23:27;;;;;;;5.30;3.85;;;;;;;-6.14;100.00;93788.50;2098486;28;20438;-83
2021/12/12 04:24:34;;;;;;;5.13;3.55;;;;;;;-6.28;100.00;93791.13;2099668;28;20430;-84
2021/12/12 04:25:35;;;;;;;6.13;3.55;;;;;;;-6.30;100.00;93792.50;2107520;28;21043;-85
2021/12/12 04:26:42;;;;;;;5.07;3.90;;;;;;;-6.34;100.00;93790.47;2115099;28;20446;-84
2021/12/12 04:27:44;;;;;;;4.10;3.60;;;;;;;-6.37;100.00;93791.06;2107401;28;20035;-85
2021/12/12 04:28:54;;;;;;;3.97;3.30;;;;;;;-6.41;100.00;93799.72;2098288;28;20550;-84
2021/12/12 04:30:00;;;;;;;4.70;3.90;;;;;;;-6.38;100.00;93791.34;2093629;28;20536;-85
2021/12/12 04:31:04;;;;;;;4.82;2.92;;;;;;;-6.29;100.00;93794.03;2099515;28;20063;-85
2021/12/12 04:32:14;;;;;;;4.95;4.22;;;;;;;-6.36;100.00;93797.81;2106625;28;20512;-85
2021/12/12 04:33:17;;;;;;;4.97;3.63;;;;;;;-6.23;100.00;93793.66;2099783;28;20542;-85
2021/12/12 04:34:28;;;;;;;4.40;3.55;;;;;;;-6.27;100.00;93797.88;2102693;28;20384;-85
2021/12/12 04:35:29;;;;;;;4.32;3.30;;;;;;;-6.31;100.00;93793.56;2101203;28;20450;-85
2021/12/12 04:36:38;;;;;;;4.93;3.38;;;;;;;-6.32;100.00;93803.22;2106348;28;20442;-85
2021/12/12 04:37:40;;;;;;;3.78;3.08;;;;;;;-6.46;100.00;93794.63;2100339;28;20464;-84
2021/12/12 04:38:41;;;;;;;4.70;3.92;;;;;;;-6.51;100.00;93795.53;2098396;28;20467;-84
2021/12/12 04:39:53;;;;;;;5.47;3.80;;;;;;;-6.35;100.00;93796.75;2115019;27;20495;-84
2021/12/12 04:40:59;;;;;;;4.32;3.70;;;;;;;-6.32;100.00;93803.22;2108098;28;20519;-84
2021/12/12 04:42:12;;;;;;;5.47;3.63;;;;;;;-6.28;100.00;93805.97;2106823;28;20446;-83
2021/12/12 04:43:17;;;;;;;3.83;3.20;;;;;;;-6.29;100.00;93814.84;2106446;28;20477;-85
2021/12/12 04:44:29;;;;;;;4.00;3.55;;;;;;;-6.35;100.00;93809.75;2099189;28;20443;-84
2021/12/12 04:45:36;;;;;;;4.60;3.60;;;;;;;-6.40;100.00;93814.28;2108074;28;20450;-84
2021/12/12 04:50:26;;;;;;;5.43;3.17;;;;;;;-6.36;100.00;93823.06;2113460;27;20468;-85
2021/12/12 04:51:32;;;;;;;3.90;3.05;;;;;;;-6.41;100.00;93821.34;2114278;28;20467;-86
2021/12/12 04:53:01;;;;;;;5.10;3.92;;;;;;;-6.51;100.00;93818.16;2099526;28;20970;-86
2021/12/12 04:54:11;;;;;;;3.97;3.10;;;;;;;-6.63;100.00;93818.63;2110014;28;20453;-87
2021/12/12 04:55:26;;;;;;;5.70;3.60;;;;;;;-6.61;100.00;93832.13;2116217;27;20426;-84
2021/12/12 04:56:29;;;;;;;3.25;2.80;;;;;;;-6.50;100.00;93824.88;2108365;28;20514;-86
2021/12/12 04:57:38;;;;;;;3.53;2.90;;;;;;;-6.44;100.00;93826.34;2112560;28;21007;-85
2021/12/12 04:58:45;;;;;;;3.58;2.97;;;;;;;-6.55;100.00;93830.19;2091791;28;20454;-85
2021/12/12 05:00:11;;;;;;;4.90;3.50;;;;;;;-6.52;100.00;93825.19;2095088;28;20636;-84
2021/12/12 05:01:32;;;;;;;3.72;3.30;;;;;;;-6.47;100.00;93814.69;2105131;28;20500;-85
2021/12/12 05:02:53;;;;;;;3.95;3.20;;;;;;;-6.56;100.00;93819.03;2109087;28;20430;-85
2021/12/12 05:03:59;;;;;;;;;;;;;;;-6.66;100.00;93825.19;2109550;28;20446;-85
2021/12/12 05:05:11;;;;;;;4.68;3.03;;;;;;;-6.69;100.00;93822.41;2099667;28;19919;-84
2021/12/12 05:06:28;;;;;;;5.53;3.97;;;;;;;-6.71;100.00;93821.94;2101206;28;20454;-85
2021/12/12 05:07:45;;;;;;;5.03;3.38;;;;;;;-6.61;100.00;93822.50;2101894;28;21166;-85
2021/12/12 05:09:03;;;;;;;4.65;2.92;;;;;;;-6.62;100.00;93828.00;2097748;28;20452;-84
2021/12/12 05:10:13;;;;;;;3.67;3.10;;;;;;;-6.71;100.00;93824.53;2100286;28;20898;-84
2021/12/12 05:11:51;;;;;;;4.45;3.22;;;;;;;-6.66;100.00;93832.25;2098539;28;20451;-85
2021/12/12 05:13:10;;;;;;;3.25;2.75;;;;;;;-6.55;100.00;93830.97;2111441;28;20599;-85
2021/12/12 05:14:21;;;;;;;7.28;3.85;;;;;;;-6.72;100.00;93826.34;2106247;28;20445;-85
2021/12/12 05:15:39;;;;;;;3.95;3.10;;;;;;;-6.83;100.00;93832.81;2091157;28;20521;-84
2021/12/12 05:16:43;;;;;;;5.53;3.42;;;;;;;-6.81;100.00;93828.09;2102692;28;20451;-85
2021/12/12 05:18:12;;;;;;;4.10;3.30;;;;;;;-6.72;100.00;93835.97;2105601;28;21251;-85
2021/12/12 05:19:21;;;;;;;6.47;3.63;;;;;;;-6.75;100.00;93829.53;2097055;28;20446;-86
2021/12/12 05:20:32;;;;;;;4.78;3.35;;;;;;;-6.76;100.00;93828.00;2098978;28;20468;-86
2021/12/12 05:21:38;;;;;;;4.30;3.20;;;;;;;-6.82;100.00;93829.16;2097875;28;20449;-85
2021/12/12 05:22:52;;;;;;;4.35;3.08;;;;;;;-6.85;100.00;93825.31;2090779;28;20443;-86
2021/12/12 05:23:58;;;;;;;4.05;3.38;;;;;;;-6.89;100.00;93832.16;2107805;28;20525;-84
2021/12/12 05:25:04;;;;;;;6.05;3.78;;;;;;;-7.00;100.00;93830.00;2107193;28;20483;-85
2021/12/12 05:26:10;;;;;;;4.78;3.42;;;;;;;-6.92;100.00;93826.75;2098473;28;20438;-85
2021/12/12 05:27:15;;;;;;;4.85;3.50;;;;;;;-6.82;100.00;93826.56;2090578;28;20440;-85
2021/12/12 05:28:19;;;;;;;5.05;3.65;;;;;;;-6.87;100.00;93830.00;2090164;28;20447;-85
2021/12/12 05:29:32;;;;;;;3.63;3.13;;;;;;;-6.79;100.00;93835.59;2090479;28;20515;-85
2021/12/12 05:30:35;;;;;;;5.70;4.18;;;;;;;-6.82;100.00;93841.38;2091221;28;20459;-84
2021/12/12 05:31:36;;;;;;;4.22;3.17;;;;;;;-6.94;100.00;93841.84;2090175;28;20945;-85
2021/12/12 05:32:39;;;;;;;4.30;3.40;;;;;;;-6.96;100.00;93836.19;2097695;28;20501;-85
2021/12/12 05:33:41;;;;;;;4.13;3.40;;;;;;;-6.86;100.00;93835.97;2089414;28;20450;-85
2021/12/12 05:34:49;;;;;;;5.10;3.53;;;;;;;-6.85;100.00;93829.72;2089878;28;20451;-85
2021/12/12 05:35:50;;;;;;;4.90;3.63;;;;;;;-6.86;100.00;93843.78;2090554;28;20484;-85
2021/12/12 05:36:53;;;;;;;4.82;4.00;;;;;;;-6.92;100.00;93845.72;2096829;28;20501;-84